Galatas, Greece
Current Conditions -  °F | °C
As of 10:20 AM on Saturday 25 Oct 2014 (Local Time) from LGEL Reporting Station
Light Rain Light Rain  
Wind Chill: 55°   Ceiling: 2500
Heat Index: 55°   Visibility: 6mi
Dew Point: 52°   Wind: 6mph
Humidity: 88%   Direction: 300°WNW
Pressure: 29.8"   Gusts: NA
Location:  37.5°N, 23.45°E
Report Text: LGEL 250720Z 30005KT 9999 -RA FEW020 BKN025 BKN070 13/11 Q1009
Loading
Personal Weather Stations






























Interactive Weather Map
Tropical Storm Tracking
New forecast layout! Learn more

10-Day Weather Forecast

Advertisements
Track Severe Weather on mobile